sensor_id;sensor_type;location;lat;lon;timestamp;P1;durP1;ratioP1;P2;durP2;ratioP2
35891;SDS011;21993;42.672;23.296;2023-12-20T00:02:23;51.57;;;28.73;;
35891;SDS011;21993;42.672;23.296;2023-12-20T00:04:49;48.90;;;28.07;;
35891;SDS011;21993;42.672;23.296;2023-12-20T00:07:15;48.17;;;27.43;;
35891;SDS011;21993;42.672;23.296;2023-12-20T00:09:40;47.17;;;30.17;;
35891;SDS011;21993;42.672;23.296;2023-12-20T00:12:06;56.93;;;30.37;;
35891;SDS011;21993;42.672;23.296;2023-12-20T00:14:31;58.77;;;32.73;;
35891;SDS011;21993;42.672;23.296;2023-12-20T00:16:57;57.50;;;31.37;;
35891;SDS011;21993;42.672;23.296;2023-12-20T00:19:22;63.33;;;34.03;;
35891;SDS011;21993;42.672;23.296;2023-12-20T00:21:49;61.43;;;35.20;;
35891;SDS011;21993;42.672;23.296;2023-12-20T00:24:14;55.37;;;32.83;;
35891;SDS011;21993;42.672;23.296;2023-12-20T00:26:40;59.37;;;33.87;;
35891;SDS011;21993;42.672;23.296;2023-12-20T00:29:05;59.00;;;33.33;;
35891;SDS011;21993;42.672;23.296;2023-12-20T00:31:31;56.70;;;31.90;;
35891;SDS011;21993;42.672;23.296;2023-12-20T00:33:56;60.23;;;35.07;;
35891;SDS011;21993;42.672;23.296;2023-12-20T00:36:22;64.70;;;36.03;;
35891;SDS011;21993;42.672;23.296;2023-12-20T00:38:47;64.10;;;36.87;;
35891;SDS011;21993;42.672;23.296;2023-12-20T00:41:13;60.97;;;31.73;;
35891;SDS011;21993;42.672;23.296;2023-12-20T00:43:38;60.63;;;33.53;;
35891;SDS011;21993;42.672;23.296;2023-12-20T00:46:04;57.37;;;31.87;;
35891;SDS011;21993;42.672;23.296;2023-12-20T00:48:29;56.90;;;31.93;;
35891;SDS011;21993;42.672;23.296;2023-12-20T00:50:56;67.07;;;32.77;;
35891;SDS011;21993;42.672;23.296;2023-12-20T00:53:22;53.00;;;31.00;;
35891;SDS011;21993;42.672;23.296;2023-12-20T00:55:48;62.00;;;33.63;;
35891;SDS011;21993;42.672;23.296;2023-12-20T00:58:13;53.87;;;30.53;;
35891;SDS011;21993;42.672;23.296;2023-12-20T01:00:40;51.10;;;30.47;;
35891;SDS011;21993;42.672;23.296;2023-12-20T01:03:07;59.50;;;33.63;;
35891;SDS011;21993;42.672;23.296;2023-12-20T01:05:32;59.47;;;32.83;;
35891;SDS011;21993;42.672;23.296;2023-12-20T01:07:58;60.47;;;34.30;;
35891;SDS011;21993;42.672;23.296;2023-12-20T01:10:23;60.67;;;32.73;;
35891;SDS011;21993;42.672;23.296;2023-12-20T01:12:49;60.53;;;33.60;;
35891;SDS011;21993;42.672;23.296;2023-12-20T01:15:14;60.87;;;33.87;;
35891;SDS011;21993;42.672;23.296;2023-12-20T01:17:40;59.80;;;31.67;;
35891;SDS011;21993;42.672;23.296;2023-12-20T01:20:05;54.93;;;32.23;;
35891;SDS011;21993;42.672;23.296;2023-12-20T01:22:31;60.00;;;33.17;;
35891;SDS011;21993;42.672;23.296;2023-12-20T01:24:57;62.03;;;32.47;;
35891;SDS011;21993;42.672;23.296;2023-12-20T01:27:22;56.93;;;31.87;;
35891;SDS011;21993;42.672;23.296;2023-12-20T01:29:48;55.03;;;31.33;;
35891;SDS011;21993;42.672;23.296;2023-12-20T01:32:13;56.67;;;31.40;;
35891;SDS011;21993;42.672;23.296;2023-12-20T01:34:38;48.83;;;30.53;;
35891;SDS011;21993;42.672;23.296;2023-12-20T01:37:04;52.47;;;28.63;;
35891;SDS011;21993;42.672;23.296;2023-12-20T01:39:29;50.67;;;29.93;;
35891;SDS011;21993;42.672;23.296;2023-12-20T01:41:55;52.73;;;29.63;;
35891;SDS011;21993;42.672;23.296;2023-12-20T01:44:20;56.73;;;30.90;;
35891;SDS011;21993;42.672;23.296;2023-12-20T01:46:46;51.63;;;29.93;;
35891;SDS011;21993;42.672;23.296;2023-12-20T01:49:12;45.97;;;28.80;;
35891;SDS011;21993;42.672;23.296;2023-12-20T01:51:38;51.80;;;28.53;;
35891;SDS011;21993;42.672;23.296;2023-12-20T01:54:04;49.27;;;27.70;;
35891;SDS011;21993;42.672;23.296;2023-12-20T01:56:30;44.03;;;25.70;;
35891;SDS011;21993;42.672;23.296;2023-12-20T01:58:56;45.77;;;25.13;;
35891;SDS011;21993;42.672;23.296;2023-12-20T02:01:22;47.13;;;25.37;;
35891;SDS011;21993;42.672;23.296;2023-12-20T02:03:48;45.60;;;26.00;;
35891;SDS011;21993;42.672;23.296;2023-12-20T02:06:15;40.20;;;25.97;;
35891;SDS011;21993;42.672;23.296;2023-12-20T02:08:41;52.57;;;27.80;;
35891;SDS011;21993;42.672;23.296;2023-12-20T02:11:07;44.57;;;26.53;;
35891;SDS011;21993;42.672;23.296;2023-12-20T02:13:32;40.80;;;24.80;;
35891;SDS011;21993;42.672;23.296;2023-12-20T02:15:59;41.27;;;24.87;;
35891;SDS011;21993;42.672;23.296;2023-12-20T02:18:25;46.00;;;25.07;;
35891;SDS011;21993;42.672;23.296;2023-12-20T02:20:51;49.83;;;26.97;;
35891;SDS011;21993;42.672;23.296;2023-12-20T02:23:16;49.60;;;26.33;;
35891;SDS011;21993;42.672;23.296;2023-12-20T02:25:42;47.33;;;27.13;;
35891;SDS011;21993;42.672;23.296;2023-12-20T02:28:07;45.17;;;28.67;;
35891;SDS011;21993;42.672;23.296;2023-12-20T02:30:33;52.80;;;32.07;;
35891;SDS011;21993;42.672;23.296;2023-12-20T02:32:59;53.70;;;30.37;;
35891;SDS011;21993;42.672;23.296;2023-12-20T02:35:26;57.47;;;33.43;;
35891;SDS011;21993;42.672;23.296;2023-12-20T02:37:51;58.00;;;32.90;;
35891;SDS011;21993;42.672;23.296;2023-12-20T02:40:17;58.73;;;30.33;;
35891;SDS011;21993;42.672;23.296;2023-12-20T02:42:42;58.30;;;32.60;;
35891;SDS011;21993;42.672;23.296;2023-12-20T02:45:08;58.13;;;31.63;;
35891;SDS011;21993;42.672;23.296;2023-12-20T02:47:34;49.27;;;28.00;;
35891;SDS011;21993;42.672;23.296;2023-12-20T02:49:59;50.60;;;29.20;;
35891;SDS011;21993;42.672;23.296;2023-12-20T02:52:25;47.87;;;28.40;;
35891;SDS011;21993;42.672;23.296;2023-12-20T02:54:51;46.07;;;26.60;;
35891;SDS011;21993;42.672;23.296;2023-12-20T02:57:16;41.77;;;25.47;;
35891;SDS011;21993;42.672;23.296;2023-12-20T02:59:42;40.23;;;25.53;;
35891;SDS011;21993;42.672;23.296;2023-12-20T03:02:07;60.37;;;32.80;;
35891;SDS011;21993;42.672;23.296;2023-12-20T03:04:33;58.00;;;34.27;;
35891;SDS011;21993;42.672;23.296;2023-12-20T03:06:58;65.43;;;37.27;;
35891;SDS011;21993;42.672;23.296;2023-12-20T03:09:24;59.17;;;32.77;;
35891;SDS011;21993;42.672;23.296;2023-12-20T03:11:49;64.20;;;36.67;;
35891;SDS011;21993;42.672;23.296;2023-12-20T03:14:15;67.07;;;37.17;;
35891;SDS011;21993;42.672;23.296;2023-12-20T03:16:40;64.83;;;36.40;;
35891;SDS011;21993;42.672;23.296;2023-12-20T03:19:06;58.23;;;33.80;;
35891;SDS011;21993;42.672;23.296;2023-12-20T03:21:31;79.20;;;43.27;;
35891;SDS011;21993;42.672;23.296;2023-12-20T03:23:56;75.27;;;39.93;;
35891;SDS011;21993;42.672;23.296;2023-12-20T03:26:22;54.70;;;31.10;;
35891;SDS011;21993;42.672;23.296;2023-12-20T03:28:48;54.43;;;29.33;;
35891;SDS011;21993;42.672;23.296;2023-12-20T03:31:14;51.43;;;30.67;;
35891;SDS011;21993;42.672;23.296;2023-12-20T03:33:40;71.60;;;40.07;;
35891;SDS011;21993;42.672;23.296;2023-12-20T03:36:05;51.20;;;29.87;;
35891;SDS011;21993;42.672;23.296;2023-12-20T03:38:31;52.30;;;31.63;;
35891;SDS011;21993;42.672;23.296;2023-12-20T03:40:57;58.90;;;33.37;;
35891;SDS011;21993;42.672;23.296;2023-12-20T03:43:22;59.27;;;33.93;;
35891;SDS011;21993;42.672;23.296;2023-12-20T03:45:48;86.93;;;46.37;;
35891;SDS011;21993;42.672;23.296;2023-12-20T03:48:13;73.17;;;43.43;;
35891;SDS011;21993;42.672;23.296;2023-12-20T03:50:39;83.93;;;44.73;;
35891;SDS011;21993;42.672;23.296;2023-12-20T03:53:04;130.40;;;66.30;;
35891;SDS011;21993;42.672;23.296;2023-12-20T03:55:30;124.73;;;66.20;;
35891;SDS011;21993;42.672;23.296;2023-12-20T03:57:55;128.63;;;71.30;;
35891;SDS011;21993;42.672;23.296;2023-12-20T04:00:21;121.07;;;60.10;;
35891;SDS011;21993;42.672;23.296;2023-12-20T04:02:46;101.03;;;53.20;;
35891;SDS011;21993;42.672;23.296;2023-12-20T04:05:12;118.53;;;64.00;;
35891;SDS011;21993;42.672;23.296;2023-12-20T04:07:37;115.37;;;63.67;;
35891;SDS011;21993;42.672;23.296;2023-12-20T04:10:03;113.20;;;58.00;;
35891;SDS011;21993;42.672;23.296;2023-12-20T04:12:30;118.40;;;61.87;;
35891;SDS011;21993;42.672;23.296;2023-12-20T04:14:56;112.23;;;62.40;;
35891;SDS011;21993;42.672;23.296;2023-12-20T04:17:22;130.30;;;66.80;;
35891;SDS011;21993;42.672;23.296;2023-12-20T04:19:48;122.20;;;63.03;;
35891;SDS011;21993;42.672;23.296;2023-12-20T04:22:14;116.20;;;63.13;;
35891;SDS011;21993;42.672;23.296;2023-12-20T04:24:40;120.30;;;60.60;;
35891;SDS011;21993;42.672;23.296;2023-12-20T04:27:07;115.87;;;59.50;;
35891;SDS011;21993;42.672;23.296;2023-12-20T04:29:33;114.80;;;59.43;;
35891;SDS011;21993;42.672;23.296;2023-12-20T04:31:58;126.93;;;64.50;;
35891;SDS011;21993;42.672;23.296;2023-12-20T04:34:24;123.27;;;67.03;;
35891;SDS011;21993;42.672;23.296;2023-12-20T04:36:49;122.83;;;61.93;;
35891;SDS011;21993;42.672;23.296;2023-12-20T04:39:15;100.43;;;56.77;;
35891;SDS011;21993;42.672;23.296;2023-12-20T04:41:41;118.13;;;59.17;;
35891;SDS011;21993;42.672;23.296;2023-12-20T04:44:06;110.93;;;54.27;;
35891;SDS011;21993;42.672;23.296;2023-12-20T04:46:32;115.13;;;62.83;;
35891;SDS011;21993;42.672;23.296;2023-12-20T04:48:57;114.60;;;60.73;;
35891;SDS011;21993;42.672;23.296;2023-12-20T04:51:23;115.13;;;62.10;;
35891;SDS011;21993;42.672;23.296;2023-12-20T04:53:49;115.73;;;61.00;;
35891;SDS011;21993;42.672;23.296;2023-12-20T04:56:14;130.60;;;65.87;;
35891;SDS011;21993;42.672;23.296;2023-12-20T04:58:40;125.00;;;64.43;;
35891;SDS011;21993;42.672;23.296;2023-12-20T05:01:06;119.93;;;64.87;;
35891;SDS011;21993;42.672;23.296;2023-12-20T05:03:32;113.90;;;61.53;;
35891;SDS011;21993;42.672;23.296;2023-12-20T05:05:58;135.13;;;64.10;;
35891;SDS011;21993;42.672;23.296;2023-12-20T05:08:23;115.23;;;61.40;;
35891;SDS011;21993;42.672;23.296;2023-12-20T05:10:49;126.20;;;63.57;;
35891;SDS011;21993;42.672;23.296;2023-12-20T05:13:14;114.57;;;62.83;;
35891;SDS011;21993;42.672;23.296;2023-12-20T05:15:40;123.60;;;64.43;;
35891;SDS011;21993;42.672;23.296;2023-12-20T05:18:06;114.87;;;60.70;;
35891;SDS011;21993;42.672;23.296;2023-12-20T05:20:31;114.50;;;59.87;;
35891;SDS011;21993;42.672;23.296;2023-12-20T05:22:57;110.03;;;57.30;;
35891;SDS011;21993;42.672;23.296;2023-12-20T05:25:22;104.00;;;54.90;;
35891;SDS011;21993;42.672;23.296;2023-12-20T05:27:48;108.53;;;53.93;;
35891;SDS011;21993;42.672;23.296;2023-12-20T05:30:13;103.83;;;55.23;;
35891;SDS011;21993;42.672;23.296;2023-12-20T05:32:39;115.17;;;54.93;;
35891;SDS011;21993;42.672;23.296;2023-12-20T05:35:04;111.47;;;56.27;;
35891;SDS011;21993;42.672;23.296;2023-12-20T05:37:30;111.53;;;53.53;;
35891;SDS011;21993;42.672;23.296;2023-12-20T05:39:55;124.43;;;57.13;;
35891;SDS011;21993;42.672;23.296;2023-12-20T05:42:21;118.33;;;55.53;;
35891;SDS011;21993;42.672;23.296;2023-12-20T05:44:46;118.23;;;55.27;;
35891;SDS011;21993;42.672;23.296;2023-12-20T05:47:12;117.70;;;52.90;;
35891;SDS011;21993;42.672;23.296;2023-12-20T05:49:37;104.53;;;49.80;;
35891;SDS011;21993;42.672;23.296;2023-12-20T05:52:03;104.13;;;50.30;;
35891;SDS011;21993;42.672;23.296;2023-12-20T05:54:28;107.03;;;50.73;;
35891;SDS011;21993;42.672;23.296;2023-12-20T05:56:54;105.90;;;52.17;;
35891;SDS011;21993;42.672;23.296;2023-12-20T05:59:20;114.33;;;52.03;;
35891;SDS011;21993;42.672;23.296;2023-12-20T06:01:45;101.97;;;51.93;;
35891;SDS011;21993;42.672;23.296;2023-12-20T06:04:11;111.90;;;54.40;;
35891;SDS011;21993;42.672;23.296;2023-12-20T06:06:43;107.63;;;51.70;;
35891;SDS011;21993;42.672;23.296;2023-12-20T06:09:09;117.60;;;54.93;;
35891;SDS011;21993;42.672;23.296;2023-12-20T06:11:35;114.60;;;52.73;;
35891;SDS011;21993;42.672;23.296;2023-12-20T06:14:00;131.00;;;59.30;;
35891;SDS011;21993;42.672;23.296;2023-12-20T06:16:26;125.23;;;54.30;;
35891;SDS011;21993;42.672;23.296;2023-12-20T06:18:51;111.57;;;52.40;;
35891;SDS011;21993;42.672;23.296;2023-12-20T06:21:16;116.30;;;52.57;;
35891;SDS011;21993;42.672;23.296;2023-12-20T06:23:42;105.07;;;52.20;;
35891;SDS011;21993;42.672;23.296;2023-12-20T06:26:08;115.43;;;52.80;;
35891;SDS011;21993;42.672;23.296;2023-12-20T06:28:33;114.47;;;52.70;;
35891;SDS011;21993;42.672;23.296;2023-12-20T06:30:58;126.97;;;54.57;;
35891;SDS011;21993;42.672;23.296;2023-12-20T06:33:25;114.10;;;50.97;;
35891;SDS011;21993;42.672;23.296;2023-12-20T06:35:51;126.50;;;53.97;;
35891;SDS011;21993;42.672;23.296;2023-12-20T06:38:17;114.60;;;52.80;;
35891;SDS011;21993;42.672;23.296;2023-12-20T06:40:43;129.40;;;53.70;;
35891;SDS011;21993;42.672;23.296;2023-12-20T06:43:09;109.30;;;56.00;;
35891;SDS011;21993;42.672;23.296;2023-12-20T06:45:35;119.17;;;52.53;;
35891;SDS011;21993;42.672;23.296;2023-12-20T06:48:00;116.07;;;55.13;;
35891;SDS011;21993;42.672;23.296;2023-12-20T06:50:26;111.90;;;56.00;;
35891;SDS011;21993;42.672;23.296;2023-12-20T06:52:52;132.00;;;56.50;;
35891;SDS011;21993;42.672;23.296;2023-12-20T06:55:18;116.50;;;53.80;;
35891;SDS011;21993;42.672;23.296;2023-12-20T06:57:43;131.57;;;54.60;;
35891;SDS011;21993;42.672;23.296;2023-12-20T07:00:10;127.63;;;56.13;;
35891;SDS011;21993;42.672;23.296;2023-12-20T07:02:36;119.27;;;57.50;;
35891;SDS011;21993;42.672;23.296;2023-12-20T07:05:02;122.63;;;55.83;;
35891;SDS011;21993;42.672;23.296;2023-12-20T07:07:27;137.37;;;56.03;;
35891;SDS011;21993;42.672;23.296;2023-12-20T07:09:53;125.60;;;55.70;;
35891;SDS011;21993;42.672;23.296;2023-12-20T07:12:18;132.53;;;62.63;;
35891;SDS011;21993;42.672;23.296;2023-12-20T07:14:47;131.60;;;64.00;;
35891;SDS011;21993;42.672;23.296;2023-12-20T07:17:12;135.03;;;59.83;;
35891;SDS011;21993;42.672;23.296;2023-12-20T07:19:39;139.60;;;62.27;;
35891;SDS011;21993;42.672;23.296;2023-12-20T07:22:05;128.97;;;61.37;;
35891;SDS011;21993;42.672;23.296;2023-12-20T07:24:31;138.93;;;59.50;;
35891;SDS011;21993;42.672;23.296;2023-12-20T07:26:58;134.57;;;60.03;;
35891;SDS011;21993;42.672;23.296;2023-12-20T07:29:24;141.33;;;59.97;;
35891;SDS011;21993;42.672;23.296;2023-12-20T07:31:50;136.03;;;60.17;;
35891;SDS011;21993;42.672;23.296;2023-12-20T07:34:17;145.53;;;62.27;;
35891;SDS011;21993;42.672;23.296;2023-12-20T07:36:42;145.77;;;59.23;;
35891;SDS011;21993;42.672;23.296;2023-12-20T07:39:10;141.53;;;61.57;;
35891;SDS011;21993;42.672;23.296;2023-12-20T07:41:35;150.50;;;62.73;;
35891;SDS011;21993;42.672;23.296;2023-12-20T07:44:01;161.10;;;62.67;;
35891;SDS011;21993;42.672;23.296;2023-12-20T07:46:26;133.30;;;60.53;;
35891;SDS011;21993;42.672;23.296;2023-12-20T07:48:52;147.20;;;62.77;;
35891;SDS011;21993;42.672;23.296;2023-12-20T07:51:17;132.97;;;61.67;;
35891;SDS011;21993;42.672;23.296;2023-12-20T07:53:43;138.63;;;60.67;;
35891;SDS011;21993;42.672;23.296;2023-12-20T07:56:18;136.03;;;61.00;;
35891;SDS011;21993;42.672;23.296;2023-12-20T07:58:44;144.00;;;63.40;;
35891;SDS011;21993;42.672;23.296;2023-12-20T08:01:11;135.57;;;61.23;;
35891;SDS011;21993;42.672;23.296;2023-12-20T08:03:37;159.80;;;63.17;;
35891;SDS011;21993;42.672;23.296;2023-12-20T08:06:03;148.43;;;63.83;;
35891;SDS011;21993;42.672;23.296;2023-12-20T08:08:29;150.23;;;65.07;;
35891;SDS011;21993;42.672;23.296;2023-12-20T08:10:54;153.07;;;66.17;;
35891;SDS011;21993;42.672;23.296;2023-12-20T08:13:22;142.80;;;62.30;;
35891;SDS011;21993;42.672;23.296;2023-12-20T08:15:51;152.10;;;65.47;;
35891;SDS011;21993;42.672;23.296;2023-12-20T08:18:20;153.40;;;65.23;;
35891;SDS011;21993;42.672;23.296;2023-12-20T08:20:46;145.30;;;67.60;;
35891;SDS011;21993;42.672;23.296;2023-12-20T08:23:13;147.93;;;64.83;;
35891;SDS011;21993;42.672;23.296;2023-12-20T08:25:39;147.70;;;64.67;;
35891;SDS011;21993;42.672;23.296;2023-12-20T08:28:04;142.23;;;61.17;;
35891;SDS011;21993;42.672;23.296;2023-12-20T08:30:30;137.67;;;60.40;;
35891;SDS011;21993;42.672;23.296;2023-12-20T08:32:59;142.87;;;64.90;;
35891;SDS011;21993;42.672;23.296;2023-12-20T08:35:25;151.83;;;64.93;;
35891;SDS011;21993;42.672;23.296;2023-12-20T08:37:50;163.53;;;68.47;;
35891;SDS011;21993;42.672;23.296;2023-12-20T08:40:16;154.93;;;68.57;;
35891;SDS011;21993;42.672;23.296;2023-12-20T08:42:41;150.87;;;68.00;;
35891;SDS011;21993;42.672;23.296;2023-12-20T08:45:07;148.27;;;67.03;;
35891;SDS011;21993;42.672;23.296;2023-12-20T08:47:33;149.90;;;68.07;;
35891;SDS011;21993;42.672;23.296;2023-12-20T08:49:58;161.60;;;71.37;;
35891;SDS011;21993;42.672;23.296;2023-12-20T08:52:25;156.47;;;68.07;;
35891;SDS011;21993;42.672;23.296;2023-12-20T08:54:52;142.87;;;63.77;;
35891;SDS011;21993;42.672;23.296;2023-12-20T08:57:22;147.80;;;68.30;;
35891;SDS011;21993;42.672;23.296;2023-12-20T08:59:49;161.97;;;69.43;;
35891;SDS011;21993;42.672;23.296;2023-12-20T09:02:15;147.07;;;68.47;;
35891;SDS011;21993;42.672;23.296;2023-12-20T09:04:41;151.73;;;66.20;;
35891;SDS011;21993;42.672;23.296;2023-12-20T09:07:24;141.87;;;66.50;;
35891;SDS011;21993;42.672;23.296;2023-12-20T09:09:51;138.90;;;65.80;;
35891;SDS011;21993;42.672;23.296;2023-12-20T09:12:20;139.00;;;66.47;;
35891;SDS011;21993;42.672;23.296;2023-12-20T09:14:46;142.10;;;65.43;;
35891;SDS011;21993;42.672;23.296;2023-12-20T09:17:12;142.13;;;65.93;;
35891;SDS011;21993;42.672;23.296;2023-12-20T09:19:38;142.13;;;69.77;;
35891;SDS011;21993;42.672;23.296;2023-12-20T09:22:04;135.97;;;66.53;;
35891;SDS011;21993;42.672;23.296;2023-12-20T09:24:30;138.10;;;66.93;;
35891;SDS011;21993;42.672;23.296;2023-12-20T09:26:56;150.37;;;69.93;;
35891;SDS011;21993;42.672;23.296;2023-12-20T09:29:21;128.50;;;64.57;;
35891;SDS011;21993;42.672;23.296;2023-12-20T09:31:47;151.20;;;69.93;;
35891;SDS011;21993;42.672;23.296;2023-12-20T09:34:14;135.67;;;65.43;;
35891;SDS011;21993;42.672;23.296;2023-12-20T09:36:40;139.97;;;65.17;;
35891;SDS011;21993;42.672;23.296;2023-12-20T09:39:11;147.53;;;68.37;;
35891;SDS011;21993;42.672;23.296;2023-12-20T09:41:38;128.03;;;63.97;;
35891;SDS011;21993;42.672;23.296;2023-12-20T09:44:11;129.73;;;63.03;;
35891;SDS011;21993;42.672;23.296;2023-12-20T09:46:41;124.33;;;63.23;;
35891;SDS011;21993;42.672;23.296;2023-12-20T09:49:08;133.87;;;62.73;;
35891;SDS011;21993;42.672;23.296;2023-12-20T09:51:35;133.00;;;65.57;;
35891;SDS011;21993;42.672;23.296;2023-12-20T09:54:02;126.40;;;61.93;;
35891;SDS011;21993;42.672;23.296;2023-12-20T09:56:29;123.73;;;62.80;;
35891;SDS011;21993;42.672;23.296;2023-12-20T09:58:54;125.23;;;63.17;;
35891;SDS011;21993;42.672;23.296;2023-12-20T10:01:20;119.97;;;62.10;;
35891;SDS011;21993;42.672;23.296;2023-12-20T10:03:46;125.93;;;60.07;;
35891;SDS011;21993;42.672;23.296;2023-12-20T10:06:11;116.30;;;59.43;;
35891;SDS011;21993;42.672;23.296;2023-12-20T10:08:38;115.00;;;61.13;;
35891;SDS011;21993;42.672;23.296;2023-12-20T10:11:04;113.47;;;59.00;;
35891;SDS011;21993;42.672;23.296;2023-12-20T10:13:30;115.67;;;58.27;;
35891;SDS011;21993;42.672;23.296;2023-12-20T10:15:56;115.30;;;57.23;;
35891;SDS011;21993;42.672;23.296;2023-12-20T10:18:22;114.73;;;56.33;;
35891;SDS011;21993;42.672;23.296;2023-12-20T10:20:48;112.53;;;57.97;;
35891;SDS011;21993;42.672;23.296;2023-12-20T10:23:15;107.53;;;54.70;;
35891;SDS011;21993;42.672;23.296;2023-12-20T10:25:41;108.27;;;54.73;;
35891;SDS011;21993;42.672;23.296;2023-12-20T10:30:36;105.40;;;56.20;;
35891;SDS011;21993;42.672;23.296;2023-12-20T10:33:02;110.87;;;55.77;;
35891;SDS011;21993;42.672;23.296;2023-12-20T10:35:27;100.87;;;54.50;;
35891;SDS011;21993;42.672;23.296;2023-12-20T10:37:55;105.53;;;54.00;;
35891;SDS011;21993;42.672;23.296;2023-12-20T10:40:21;116.43;;;56.20;;
35891;SDS011;21993;42.672;23.296;2023-12-20T10:42:48;124.77;;;58.63;;
35891;SDS011;21993;42.672;23.296;2023-12-20T10:45:15;110.93;;;56.63;;
35891;SDS011;21993;42.672;23.296;2023-12-20T10:47:43;114.07;;;56.37;;
35891;SDS011;21993;42.672;23.296;2023-12-20T10:50:11;109.23;;;54.20;;
35891;SDS011;21993;42.672;23.296;2023-12-20T10:52:37;109.53;;;54.07;;
35891;SDS011;21993;42.672;23.296;2023-12-20T10:55:05;100.37;;;52.97;;
35891;SDS011;21993;42.672;23.296;2023-12-20T10:57:31;106.70;;;54.83;;
35891;SDS011;21993;42.672;23.296;2023-12-20T10:59:59;113.10;;;56.47;;
35891;SDS011;21993;42.672;23.296;2023-12-20T11:02:29;95.30;;;50.93;;
35891;SDS011;21993;42.672;23.296;2023-12-20T11:05:22;96.67;;;50.63;;
35891;SDS011;21993;42.672;23.296;2023-12-20T11:08:03;101.60;;;52.83;;
35891;SDS011;21993;42.672;23.296;2023-12-20T11:13:44;119.73;;;55.60;;
35891;SDS011;21993;42.672;23.296;2023-12-20T11:16:19;112.40;;;55.33;;
35891;SDS011;21993;42.672;23.296;2023-12-20T11:18:45;120.47;;;56.83;;
35891;SDS011;21993;42.672;23.296;2023-12-20T11:21:10;118.67;;;54.57;;
35891;SDS011;21993;42.672;23.296;2023-12-20T11:23:36;119.47;;;54.80;;
35891;SDS011;21993;42.672;23.296;2023-12-20T11:26:02;109.77;;;54.27;;
35891;SDS011;21993;42.672;23.296;2023-12-20T11:28:28;106.40;;;54.67;;
35891;SDS011;21993;42.672;23.296;2023-12-20T11:30:55;113.17;;;53.50;;
35891;SDS011;21993;42.672;23.296;2023-12-20T11:33:26;121.60;;;51.50;;
35891;SDS011;21993;42.672;23.296;2023-12-20T11:35:58;121.37;;;51.40;;
35891;SDS011;21993;42.672;23.296;2023-12-20T11:38:35;117.70;;;50.50;;
35891;SDS011;21993;42.672;23.296;2023-12-20T11:41:01;115.80;;;52.67;;
35891;SDS011;21993;42.672;23.296;2023-12-20T11:43:36;120.43;;;51.90;;
35891;SDS011;21993;42.672;23.296;2023-12-20T11:46:03;98.97;;;51.50;;
35891;SDS011;21993;42.672;23.296;2023-12-20T11:48:34;104.37;;;52.20;;
35891;SDS011;21993;42.672;23.296;2023-12-20T11:51:00;108.23;;;49.90;;
35891;SDS011;21993;42.672;23.296;2023-12-20T11:53:28;98.20;;;48.03;;
35891;SDS011;21993;42.672;23.296;2023-12-20T11:55:55;97.27;;;48.73;;
35891;SDS011;21993;42.672;23.296;2023-12-20T11:58:21;96.40;;;45.83;;
35891;SDS011;21993;42.672;23.296;2023-12-20T12:00:48;89.20;;;44.10;;
35891;SDS011;21993;42.672;23.296;2023-12-20T12:03:15;94.47;;;44.67;;
35891;SDS011;21993;42.672;23.296;2023-12-20T12:05:41;84.20;;;46.03;;
35891;SDS011;21993;42.672;23.296;2023-12-20T12:08:06;90.87;;;45.07;;
35891;SDS011;21993;42.672;23.296;2023-12-20T12:10:32;88.93;;;43.10;;
35891;SDS011;21993;42.672;23.296;2023-12-20T12:12:58;85.03;;;41.53;;
35891;SDS011;21993;42.672;23.296;2023-12-20T12:15:25;83.00;;;44.17;;
35891;SDS011;21993;42.672;23.296;2023-12-20T12:17:54;95.03;;;46.90;;
35891;SDS011;21993;42.672;23.296;2023-12-20T12:20:24;89.87;;;44.73;;
35891;SDS011;21993;42.672;23.296;2023-12-20T12:22:59;94.87;;;47.17;;
35891;SDS011;21993;42.672;23.296;2023-12-20T12:25:26;80.87;;;44.23;;
35891;SDS011;21993;42.672;23.296;2023-12-20T12:27:52;85.23;;;45.47;;
35891;SDS011;21993;42.672;23.296;2023-12-20T12:30:18;86.10;;;46.77;;
35891;SDS011;21993;42.672;23.296;2023-12-20T12:32:44;87.07;;;44.67;;
35891;SDS011;21993;42.672;23.296;2023-12-20T12:35:10;83.13;;;45.43;;
35891;SDS011;21993;42.672;23.296;2023-12-20T12:37:37;85.57;;;47.00;;
35891;SDS011;21993;42.672;23.296;2023-12-20T12:40:14;84.30;;;44.03;;
35891;SDS011;21993;42.672;23.296;2023-12-20T12:42:41;86.97;;;44.90;;
35891;SDS011;21993;42.672;23.296;2023-12-20T12:45:08;86.37;;;44.70;;
35891;SDS011;21993;42.672;23.296;2023-12-20T12:47:34;88.93;;;43.87;;
35891;SDS011;21993;42.672;23.296;2023-12-20T12:50:00;84.40;;;44.50;;
35891;SDS011;21993;42.672;23.296;2023-12-20T12:52:26;89.67;;;46.73;;
35891;SDS011;21993;42.672;23.296;2023-12-20T12:54:52;92.50;;;46.27;;
35891;SDS011;21993;42.672;23.296;2023-12-20T12:57:18;84.87;;;48.17;;
35891;SDS011;21993;42.672;23.296;2023-12-20T12:59:44;96.83;;;48.40;;
35891;SDS011;21993;42.672;23.296;2023-12-20T13:02:13;99.73;;;50.27;;
35891;SDS011;21993;42.672;23.296;2023-12-20T13:04:42;97.27;;;48.67;;
35891;SDS011;21993;42.672;23.296;2023-12-20T13:07:08;98.87;;;48.57;;
35891;SDS011;21993;42.672;23.296;2023-12-20T13:09:37;98.17;;;48.67;;
35891;SDS011;21993;42.672;23.296;2023-12-20T13:12:04;104.50;;;49.10;;
35891;SDS011;21993;42.672;23.296;2023-12-20T13:14:32;101.43;;;46.57;;
35891;SDS011;21993;42.672;23.296;2023-12-20T13:17:04;98.67;;;47.93;;
35891;SDS011;21993;42.672;23.296;2023-12-20T13:19:30;93.67;;;46.67;;
35891;SDS011;21993;42.672;23.296;2023-12-20T13:21:56;91.30;;;47.03;;
35891;SDS011;21993;42.672;23.296;2023-12-20T13:24:23;89.97;;;46.73;;
35891;SDS011;21993;42.672;23.296;2023-12-20T13:26:48;96.47;;;47.80;;
35891;SDS011;21993;42.672;23.296;2023-12-20T13:29:14;111.33;;;50.47;;
35891;SDS011;21993;42.672;23.296;2023-12-20T13:31:39;100.53;;;45.53;;
35891;SDS011;21993;42.672;23.296;2023-12-20T13:34:06;95.93;;;47.57;;
35891;SDS011;21993;42.672;23.296;2023-12-20T13:36:31;106.20;;;49.00;;
35891;SDS011;21993;42.672;23.296;2023-12-20T13:38:57;112.00;;;47.53;;
35891;SDS011;21993;42.672;23.296;2023-12-20T13:41:22;98.77;;;47.33;;
35891;SDS011;21993;42.672;23.296;2023-12-20T13:43:48;102.23;;;47.40;;
35891;SDS011;21993;42.672;23.296;2023-12-20T13:46:14;109.40;;;50.30;;
35891;SDS011;21993;42.672;23.296;2023-12-20T13:48:39;102.77;;;50.20;;
35891;SDS011;21993;42.672;23.296;2023-12-20T13:51:05;111.07;;;49.10;;
35891;SDS011;21993;42.672;23.296;2023-12-20T13:53:31;101.00;;;45.53;;
35891;SDS011;21993;42.672;23.296;2023-12-20T13:55:56;104.00;;;49.43;;
35891;SDS011;21993;42.672;23.296;2023-12-20T13:58:23;113.13;;;51.53;;
35891;SDS011;21993;42.672;23.296;2023-12-20T14:00:48;105.47;;;49.57;;
35891;SDS011;21993;42.672;23.296;2023-12-20T14:03:14;112.80;;;49.90;;